createdAt,value
2018-02-17T00:01:03.071Z,13.77
2018-02-17T00:03:30.630Z,16.37
2018-02-17T00:05:58.210Z,13.40
2018-02-17T00:08:25.748Z,16.67
2018-02-17T00:10:53.306Z,9.87
2018-02-17T00:13:20.856Z,12.73
2018-02-17T00:15:49.281Z,14.97
2018-02-17T00:18:16.941Z,18.30
2018-02-17T00:20:44.594Z,15.87
2018-02-17T00:23:12.162Z,16.37
2018-02-17T00:25:39.735Z,19.63
2018-02-17T00:28:07.294Z,16.97
2018-02-17T00:30:34.863Z,14.93
2018-02-17T00:33:02.521Z,13.67
2018-02-17T00:35:30.108Z,16.17
2018-02-17T00:37:57.774Z,13.40
2018-02-17T00:40:25.348Z,13.23
2018-02-17T00:42:53.721Z,18.77
2018-02-17T00:45:21.294Z,20.07
2018-02-17T00:47:48.870Z,15.53
2018-02-17T00:50:17.190Z,18.37
2018-02-17T00:52:44.755Z,17.77
2018-02-17T00:55:12.315Z,17.23
2018-02-17T00:57:39.856Z,13.50
2018-02-17T01:00:07.411Z,15.97
2018-02-17T01:02:35.024Z,15.50
2018-02-17T01:05:02.567Z,13.50
2018-02-17T01:07:30.135Z,14.43
2018-02-17T01:09:57.682Z,16.70
2018-02-17T01:12:25.240Z,14.10
2018-02-17T01:14:52.794Z,19.53
2018-02-17T01:17:20.371Z,16.23
2018-02-17T01:19:47.934Z,13.03
2018-02-17T01:22:15.492Z,16.33
2018-02-17T01:24:43.042Z,13.00
2018-02-17T01:27:10.638Z,18.80
2018-02-17T01:29:38.178Z,16.27
2018-02-17T01:32:05.744Z,16.77
2018-02-17T01:34:33.308Z,14.20
2018-02-17T01:37:00.862Z,23.73
2018-02-17T01:39:28.432Z,23.37
2018-02-17T01:41:55.979Z,16.20
2018-02-17T01:44:23.535Z,19.00
2018-02-17T01:46:51.123Z,17.63
2018-02-17T01:49:18.702Z,17.60
2018-02-17T01:51:46.252Z,17.90
2018-02-17T01:54:13.814Z,19.87
2018-02-17T01:56:41.377Z,19.70
2018-02-17T01:59:08.950Z,20.63
2018-02-17T02:01:36.497Z,17.80
2018-02-17T02:04:04.055Z,16.20
2018-02-17T02:06:31.613Z,21.43
2018-02-17T02:08:59.177Z,18.07
2018-02-17T02:11:26.742Z,18.03
2018-02-17T02:13:54.306Z,17.40
2018-02-17T02:16:21.873Z,19.57
2018-02-17T02:18:49.520Z,17.43
2018-02-17T02:21:17.109Z,20.20
2018-02-17T02:23:44.663Z,21.27
2018-02-17T02:26:12.737Z,22.27
2018-02-17T02:28:40.361Z,16.57
2018-02-17T02:31:07.911Z,18.30
2018-02-17T02:33:35.467Z,12.93
2018-02-17T02:36:02.998Z,18.73
2018-02-17T02:38:30.589Z,17.57
2018-02-17T02:40:58.297Z,17.60
2018-02-17T02:43:25.851Z,18.33
2018-02-17T02:45:53.432Z,19.40
2018-02-17T02:48:20.978Z,18.67
2018-02-17T02:50:48.633Z,20.50
2018-02-17T02:53:16.203Z,13.67
2018-02-17T02:55:43.764Z,17.10
2018-02-17T02:58:11.325Z,20.33
2018-02-17T03:00:38.982Z,15.33
2018-02-17T03:03:06.574Z,12.63
2018-02-17T03:05:34.206Z,17.20
2018-02-17T03:08:01.769Z,13.30
2018-02-17T03:10:29.330Z,16.47
2018-02-17T03:12:56.880Z,18.60
2018-02-17T03:15:24.436Z,28.33
2018-02-17T03:17:51.986Z,15.40
2018-02-17T03:20:19.539Z,11.20
2018-02-17T03:22:47.099Z,18.47
2018-02-17T03:25:14.652Z,16.57
2018-02-17T03:27:42.943Z,11.40
2018-02-17T03:30:10.500Z,12.77
2018-02-17T03:32:38.034Z,12.57
2018-02-17T03:35:06.349Z,12.77
2018-02-17T03:37:33.926Z,15.73
2018-02-17T03:40:01.482Z,14.13
2018-02-17T03:42:29.029Z,15.77
2018-02-17T03:44:56.614Z,12.70
2018-02-17T03:47:24.150Z,14.33
2018-02-17T03:49:51.698Z,14.90
2018-02-17T03:52:19.266Z,14.87
2018-02-17T03:54:46.817Z,11.17
2018-02-17T03:57:15.152Z,14.13
2018-02-17T03:59:42.742Z,12.73
2018-02-17T04:02:11.059Z,11.63
2018-02-17T04:04:38.644Z,13.77
2018-02-17T04:07:06.294Z,15.63
2018-02-17T04:09:33.839Z,14.30
2018-02-17T04:12:01.418Z,18.10
2018-02-17T04:14:28.985Z,11.53
2018-02-17T04:16:56.533Z,14.47
2018-02-17T04:19:24.088Z,13.43
2018-02-17T04:21:51.676Z,12.07
2018-02-17T04:24:19.332Z,15.53
2018-02-17T04:26:46.903Z,11.93
2018-02-17T04:29:14.458Z,12.20
2018-02-17T04:31:42.005Z,12.23
2018-02-17T04:34:09.548Z,13.23
2018-02-17T04:36:37.107Z,11.53
2018-02-17T04:39:04.643Z,16.00
2018-02-17T04:44:41.951Z,14.17
2018-02-17T04:47:15.972Z,14.00
2018-02-17T04:49:49.155Z,17.30
2018-02-17T04:52:34.155Z,15.50
2018-02-17T04:55:02.533Z,15.80
2018-02-17T04:57:44.968Z,13.87
2018-02-17T05:00:24.275Z,14.17
2018-02-17T05:03:12.699Z,16.70
2018-02-17T05:05:41.033Z,15.50
2018-02-17T05:08:27.337Z,15.37
2018-02-17T05:10:54.879Z,15.93
2018-02-17T05:13:22.426Z,13.97
2018-02-17T05:15:53.792Z,14.87
2018-02-17T05:18:25.866Z,17.60
2018-02-17T05:20:54.330Z,14.03
2018-02-17T05:23:29.337Z,11.03
2018-02-17T05:25:56.918Z,15.40
2018-02-17T05:28:40.282Z,16.37
2018-02-17T05:31:08.428Z,18.23
2018-02-17T05:33:46.836Z,19.27
2018-02-17T05:36:18.087Z,17.47
2018-02-17T05:39:02.472Z,16.67
2018-02-17T05:41:47.708Z,19.27
2018-02-17T05:44:21.136Z,14.90
2018-02-17T05:46:53.612Z,15.67
2018-02-17T05:49:31.068Z,18.30
2018-02-17T05:51:58.625Z,19.40
2018-02-17T05:54:26.510Z,17.07
2018-02-17T05:56:54.071Z,16.50
2018-02-17T05:59:21.638Z,16.93
2018-02-17T06:01:49.176Z,13.80
2018-02-17T06:04:16.766Z,15.97
2018-02-17T06:06:44.438Z,17.33
2018-02-17T06:09:11.979Z,13.77
2018-02-17T06:11:39.527Z,13.67
2018-02-17T06:14:07.089Z,18.00
2018-02-17T06:16:34.629Z,14.07
2018-02-17T06:19:02.970Z,13.43
2018-02-17T06:21:30.525Z,14.13
2018-02-17T06:23:58.202Z,13.43
2018-02-17T06:26:25.746Z,16.23
2018-02-17T06:28:53.309Z,15.17
2018-02-17T06:31:20.966Z,17.77
2018-02-17T06:33:48.509Z,16.30
2018-02-17T06:36:16.089Z,11.83
2018-02-17T06:38:43.650Z,16.50
2018-02-17T06:41:11.303Z,14.27
2018-02-17T06:43:38.884Z,12.70
2018-02-17T06:46:06.442Z,20.33
2018-02-17T06:48:34.086Z,15.60
2018-02-17T06:51:01.657Z,17.17
2018-02-17T06:53:29.201Z,19.47
2018-02-17T06:55:56.754Z,19.03
2018-02-17T06:58:24.337Z,18.93
2018-02-17T07:00:51.917Z,15.60
2018-02-17T07:03:19.473Z,14.53
2018-02-17T07:05:47.120Z,15.43
2018-02-17T07:08:14.682Z,15.93
2018-02-17T07:10:42.240Z,15.77
2018-02-17T07:13:09.895Z,15.83
2018-02-17T07:15:37.476Z,19.77
2018-02-17T07:18:05.057Z,17.73
2018-02-17T07:20:33.471Z,17.10
2018-02-17T07:23:01.152Z,14.27
2018-02-17T07:25:28.723Z,19.17
2018-02-17T07:27:56.287Z,12.63
2018-02-17T07:30:23.838Z,13.67
2018-02-17T07:32:51.508Z,13.40
2018-02-17T07:35:19.071Z,10.40
2018-02-17T07:37:46.630Z,14.23
2018-02-17T07:40:14.199Z,15.17
2018-02-17T07:42:41.772Z,13.27
2018-02-17T07:45:09.328Z,15.07
2018-02-17T07:47:36.886Z,13.13
2018-02-17T07:50:04.457Z,17.93
2018-02-17T07:52:32.100Z,15.00
2018-02-17T07:54:59.652Z,12.23
2018-02-17T07:57:27.208Z,17.77
2018-02-17T07:59:54.767Z,11.43
2018-02-17T08:02:22.312Z,16.07
2018-02-17T08:04:49.873Z,16.93
2018-02-17T08:07:17.427Z,16.97
2018-02-17T08:09:45.116Z,15.17
2018-02-17T08:12:12.722Z,13.53
2018-02-17T08:14:40.281Z,14.87
2018-02-17T08:17:07.833Z,14.40
2018-02-17T08:19:36.153Z,17.60
2018-02-17T08:22:03.724Z,18.87
2018-02-17T08:24:31.308Z,15.87
2018-02-17T08:26:58.914Z,17.63
2018-02-17T08:29:27.243Z,16.37
2018-02-17T08:31:54.789Z,14.50
2018-02-17T08:34:22.335Z,15.97
2018-02-17T08:36:49.944Z,16.77
2018-02-17T08:39:17.598Z,23.40
2018-02-17T08:41:45.166Z,18.10
2018-02-17T08:44:12.718Z,14.70
2018-02-17T08:46:41.906Z,20.67
2018-02-17T08:49:09.467Z,16.03
2018-02-17T08:51:39.900Z,19.80
2018-02-17T08:54:07.463Z,17.27
2018-02-17T08:56:35.133Z,20.70
2018-02-17T08:59:02.776Z,15.83
2018-02-17T09:01:30.323Z,18.03
2018-02-17T09:03:58.003Z,16.60
2018-02-17T09:06:25.549Z,19.07
2018-02-17T09:08:53.108Z,19.00
2018-02-17T09:11:20.678Z,14.47
2018-02-17T09:13:48.216Z,16.10
2018-02-17T09:16:16.529Z,19.03
2018-02-17T09:18:44.185Z,16.77
2018-02-17T09:21:11.741Z,19.77
2018-02-17T09:23:39.343Z,19.77
2018-02-17T09:26:06.989Z,19.63
2018-02-17T09:28:34.557Z,18.33
2018-02-17T09:31:02.190Z,21.47
2018-02-17T09:33:29.746Z,17.57
2018-02-17T09:35:57.347Z,19.10
2018-02-17T09:38:25.000Z,18.33
2018-02-17T09:40:52.558Z,20.20
2018-02-17T09:43:20.123Z,16.17
2018-02-17T09:45:47.669Z,15.07
2018-02-17T09:48:15.235Z,18.33
2018-02-17T09:50:42.795Z,22.23
2018-02-17T09:53:10.342Z,18.07
2018-02-17T09:55:37.940Z,22.60
2018-02-17T09:58:05.506Z,18.77
2018-02-17T10:00:33.063Z,18.40
2018-02-17T10:03:00.635Z,18.83
2018-02-17T10:05:28.262Z,13.20
2018-02-17T10:07:55.817Z,17.87
2018-02-17T10:10:23.392Z,16.77
2018-02-17T10:12:50.933Z,16.73
2018-02-17T10:15:18.471Z,16.30
2018-02-17T10:17:46.061Z,15.67
2018-02-17T10:20:13.617Z,14.17
2018-02-17T10:22:41.173Z,15.27
2018-02-17T10:25:08.746Z,17.83
2018-02-17T10:27:36.286Z,17.17
2018-02-17T10:30:03.837Z,14.37
2018-02-17T10:32:31.382Z,18.57
2018-02-17T10:34:59.694Z,13.47
2018-02-17T10:37:27.284Z,19.07
2018-02-17T10:39:54.936Z,13.87
2018-02-17T10:42:22.503Z,14.57
2018-02-17T10:44:50.155Z,13.80
2018-02-17T10:47:17.813Z,14.17
2018-02-17T10:49:45.359Z,16.93
2018-02-17T10:52:12.938Z,15.97
2018-02-17T10:54:40.491Z,16.60
2018-02-17T10:57:08.066Z,13.87
2018-02-17T10:59:35.742Z,12.77
2018-02-17T11:02:03.387Z,16.30
2018-02-17T11:04:30.955Z,13.53
2018-02-17T11:06:58.547Z,13.90
2018-02-17T11:09:26.866Z,13.53
2018-02-17T11:11:54.414Z,12.47
2018-02-17T11:14:21.998Z,13.53
2018-02-17T11:16:49.561Z,13.17
2018-02-17T11:19:17.119Z,12.97
2018-02-17T11:21:44.726Z,12.10
2018-02-17T11:24:13.048Z,13.80
2018-02-17T11:26:40.612Z,12.10
2018-02-17T11:29:08.176Z,11.87
2018-02-17T11:31:35.865Z,15.50
2018-02-17T11:34:03.455Z,12.10
2018-02-17T11:36:31.791Z,15.17
2018-02-17T11:38:59.419Z,15.63
2018-02-17T11:41:27.022Z,13.60
2018-02-17T11:43:54.686Z,14.60
2018-02-17T11:46:22.338Z,13.57
2018-02-17T11:48:49.894Z,13.33
2018-02-17T11:51:17.461Z,12.97
2018-02-17T11:53:45.123Z,13.57
2018-02-17T11:56:12.679Z,10.70
2018-02-17T11:58:40.244Z,9.80
2018-02-17T12:01:07.795Z,12.37
2018-02-17T12:03:35.343Z,13.23
2018-02-17T12:06:03.003Z,12.23
2018-02-17T12:08:30.569Z,11.53
2018-02-17T12:10:58.145Z,11.23
2018-02-17T12:13:25.723Z,13.03
2018-02-17T12:15:53.407Z,12.93
2018-02-17T12:18:21.715Z,16.43
2018-02-17T12:20:49.255Z,14.23
2018-02-17T12:23:17.580Z,13.90
2018-02-17T12:25:45.150Z,13.40
2018-02-17T12:28:12.701Z,10.37
2018-02-17T12:30:40.259Z,11.03
2018-02-17T12:33:07.792Z,14.97
2018-02-17T12:35:35.347Z,14.83
2018-02-17T12:38:03.026Z,12.30
2018-02-17T12:40:30.608Z,18.83
2018-02-17T12:42:58.183Z,14.90
2018-02-17T12:45:25.744Z,15.83
2018-02-17T12:47:53.315Z,15.37
2018-02-17T12:50:20.873Z,11.47
2018-02-17T12:52:48.457Z,14.27
2018-02-17T12:55:16.773Z,12.33
2018-02-17T12:57:44.329Z,13.50
2018-02-17T13:00:11.915Z,13.70
2018-02-17T13:02:39.479Z,15.60
2018-02-17T13:05:07.135Z,14.43
2018-02-17T13:07:34.694Z,17.07
2018-02-17T13:10:02.254Z,11.33
2018-02-17T13:12:29.803Z,15.03
2018-02-17T13:14:57.388Z,15.30
2018-02-17T13:17:24.923Z,14.50
2018-02-17T13:19:52.509Z,14.63
2018-02-17T13:22:20.067Z,14.80
2018-02-17T13:24:47.624Z,16.03
2018-02-17T13:27:15.189Z,13.90
2018-02-17T13:29:42.748Z,12.30
2018-02-17T13:32:10.404Z,11.33
2018-02-17T13:34:37.971Z,11.67
2018-02-17T13:37:05.524Z,13.90
2018-02-17T13:39:33.216Z,17.70
2018-02-17T13:42:01.560Z,13.60
2018-02-17T13:44:29.249Z,14.80
2018-02-17T13:46:57.689Z,16.27
2018-02-17T13:49:25.245Z,11.10
2018-02-17T13:51:52.817Z,14.57
2018-02-17T13:54:20.380Z,14.67
2018-02-17T13:56:47.950Z,16.83
2018-02-17T13:59:15.701Z,16.80
2018-02-17T14:01:43.258Z,12.27
2018-02-17T14:04:11.194Z,14.80
2018-02-17T14:06:38.763Z,12.30
2018-02-17T14:09:06.367Z,13.90
2018-02-17T14:11:33.918Z,15.33
2018-02-17T14:14:01.478Z,16.23
2018-02-17T14:16:29.130Z,17.87
2018-02-17T14:18:56.696Z,19.67
2018-02-17T14:21:24.358Z,17.83
2018-02-17T14:23:51.914Z,17.27
2018-02-17T14:26:19.566Z,14.73
2018-02-17T14:28:47.137Z,18.03
2018-02-17T14:31:14.720Z,19.97
2018-02-17T14:33:42.266Z,18.47
2018-02-17T14:36:09.835Z,18.73
2018-02-17T14:38:37.540Z,14.80
2018-02-17T14:41:05.884Z,19.83
2018-02-17T14:43:33.439Z,17.07
2018-02-17T14:46:01.107Z,15.40
2018-02-17T14:48:28.658Z,16.33
2018-02-17T14:50:56.396Z,15.13
2018-02-17T14:53:23.997Z,16.10
2018-02-17T14:55:51.582Z,16.93
2018-02-17T14:58:19.923Z,16.40
2018-02-17T15:00:47.461Z,14.73
2018-02-17T15:03:15.045Z,14.63
2018-02-17T15:05:42.722Z,14.97
2018-02-17T15:08:10.264Z,14.40
2018-02-17T15:10:37.806Z,15.10
2018-02-17T15:13:05.370Z,16.23
2018-02-17T15:15:32.930Z,13.47
2018-02-17T15:18:00.484Z,19.77
2018-02-17T15:20:31.610Z,16.03
2018-02-17T15:23:00.028Z,16.00
2018-02-17T15:25:27.577Z,16.17
2018-02-17T15:27:55.143Z,17.40
2018-02-17T15:30:22.707Z,16.50
2018-02-17T15:32:50.259Z,18.93
2018-02-17T15:35:17.962Z,15.53
2018-02-17T15:37:45.486Z,14.70
2018-02-17T15:40:13.042Z,16.23
2018-02-17T15:42:40.713Z,17.67
2018-02-17T15:45:08.786Z,16.80
2018-02-17T15:47:36.348Z,14.50
2018-02-17T15:50:03.945Z,14.70
2018-02-17T15:52:32.359Z,16.07
2018-02-17T15:54:59.946Z,18.53
2018-02-17T15:57:27.622Z,17.73
2018-02-17T15:59:55.263Z,20.03
2018-02-17T16:02:22.827Z,17.87
2018-02-17T16:04:50.425Z,20.13
2018-02-17T16:07:17.958Z,17.40
2018-02-17T16:09:45.527Z,18.27
2018-02-17T16:12:13.085Z,18.90
2018-02-17T16:14:40.635Z,19.70
2018-02-17T16:17:08.168Z,19.53
2018-02-17T16:19:35.860Z,21.23
2018-02-17T16:22:03.530Z,18.80
2018-02-17T16:24:31.089Z,15.73
2018-02-17T16:26:58.726Z,23.83
2018-02-17T16:29:26.258Z,21.97
2018-02-17T16:31:53.832Z,17.80
2018-02-17T16:34:21.400Z,16.67
2018-02-17T16:36:48.961Z,16.37
2018-02-17T16:39:16.623Z,16.57
2018-02-17T16:41:44.178Z,16.87
2018-02-17T16:44:11.724Z,17.27
2018-02-17T16:46:39.299Z,18.20
2018-02-17T16:49:06.858Z,21.40
2018-02-17T16:51:34.428Z,18.53
2018-02-17T16:54:02.008Z,17.47
2018-02-17T16:56:29.659Z,14.93
2018-02-17T16:58:57.314Z,16.17
2018-02-17T17:01:24.875Z,19.03
2018-02-17T17:03:52.439Z,15.93
2018-02-17T17:06:20.019Z,13.87
2018-02-17T17:08:47.575Z,19.23
2018-02-17T17:11:15.136Z,16.33
2018-02-17T17:13:42.678Z,15.90
2018-02-17T17:16:10.244Z,15.87
2018-02-17T17:18:37.824Z,13.73
2018-02-17T17:21:05.385Z,17.27
2018-02-17T17:23:32.935Z,16.27
2018-02-17T17:26:00.508Z,18.23
2018-02-17T17:28:28.160Z,15.63
2018-02-17T17:30:56.530Z,19.23
2018-02-17T17:33:24.088Z,25.00
2018-02-17T17:35:51.632Z,20.43
2018-02-17T17:38:19.245Z,17.67
2018-02-17T17:40:46.797Z,19.07
2018-02-17T17:43:14.355Z,20.83
2018-02-17T17:45:43.509Z,19.83
2018-02-17T17:48:11.063Z,17.10
2018-02-17T17:50:39.487Z,23.37
2018-02-17T17:53:07.049Z,19.47
2018-02-17T17:55:35.341Z,20.93
2018-02-17T17:58:03.079Z,22.33
2018-02-17T18:00:30.628Z,16.83
2018-02-17T18:02:58.200Z,18.83
2018-02-17T18:05:25.755Z,17.73
2018-02-17T18:07:53.325Z,19.23
2018-02-17T18:10:20.904Z,22.87
2018-02-17T18:12:48.449Z,23.00
2018-02-17T18:15:16.022Z,17.50
2018-02-17T18:17:43.634Z,17.10
2018-02-17T18:20:11.235Z,18.47
2018-02-17T18:22:38.764Z,20.23
2018-02-17T18:25:06.349Z,15.90
2018-02-17T18:27:33.890Z,17.00
2018-02-17T18:30:01.436Z,17.47
2018-02-17T18:32:29.008Z,17.70
2018-02-17T18:34:56.562Z,17.17
2018-02-17T18:37:24.108Z,18.43
2018-02-17T18:39:52.419Z,19.90
2018-02-17T18:42:19.984Z,17.33
2018-02-17T18:44:47.527Z,16.90
2018-02-17T18:47:15.103Z,17.47
2018-02-17T18:49:42.684Z,16.57
2018-02-17T18:52:10.357Z,20.33
2018-02-17T18:54:38.003Z,20.53
2018-02-17T18:57:05.579Z,19.33
2018-02-17T18:59:33.904Z,19.37
2018-02-17T19:02:01.517Z,20.43
2018-02-17T19:04:29.068Z,20.67
2018-02-17T19:06:56.636Z,19.23
2018-02-17T19:09:24.222Z,20.90
2018-02-17T19:11:52.541Z,20.90
2018-02-17T19:14:20.095Z,17.27
2018-02-17T19:16:47.674Z,20.87
2018-02-17T19:19:15.238Z,19.43
2018-02-17T19:21:43.645Z,18.73
2018-02-17T19:24:11.203Z,19.57
2018-02-17T19:26:38.837Z,20.50
2018-02-17T19:29:06.384Z,19.40
2018-02-17T19:31:33.951Z,20.20
2018-02-17T19:34:01.503Z,20.30
2018-02-17T19:36:29.066Z,20.00
2018-02-17T19:38:56.641Z,20.60
2018-02-17T19:41:24.311Z,21.37
2018-02-17T19:43:51.869Z,18.97
2018-02-17T19:46:19.440Z,19.63
2018-02-17T19:48:46.986Z,20.23
2018-02-17T19:51:14.531Z,23.07
2018-02-17T19:53:42.103Z,21.63
2018-02-17T19:56:09.656Z,19.00
2018-02-17T19:58:37.220Z,21.67
2018-02-17T20:01:04.894Z,20.20
2018-02-17T20:03:32.568Z,21.20
2018-02-17T20:06:00.128Z,23.00
2018-02-17T20:08:27.784Z,22.60
2018-02-17T20:10:55.451Z,22.13
2018-02-17T20:13:23.097Z,22.60
2018-02-17T20:15:56.899Z,20.97
2018-02-17T20:18:24.475Z,22.87
2018-02-17T20:20:52.024Z,23.23
2018-02-17T20:23:19.683Z,21.87
2018-02-17T20:25:47.328Z,22.47
2018-02-17T20:28:14.883Z,20.97
2018-02-17T20:30:42.444Z,20.07
2018-02-17T20:33:10.004Z,21.70
2018-02-17T20:35:37.606Z,21.23
2018-02-17T20:38:05.185Z,20.60
2018-02-17T20:40:32.741Z,22.60
2018-02-17T20:43:00.286Z,18.07
2018-02-17T20:45:27.961Z,23.30
2018-02-17T20:47:56.279Z,22.13
2018-02-17T20:50:23.872Z,21.33
2018-02-17T20:52:51.430Z,21.47
2018-02-17T20:55:19.006Z,23.43
2018-02-17T20:57:46.563Z,21.73
2018-02-17T21:00:14.126Z,21.53
2018-02-17T21:02:41.725Z,21.23
2018-02-17T21:05:09.345Z,23.53
2018-02-17T21:07:36.912Z,23.33
2018-02-17T21:10:04.500Z,23.63
2018-02-17T21:12:32.845Z,26.90
2018-02-17T21:15:00.498Z,25.37
2018-02-17T21:17:28.067Z,22.70
2018-02-17T21:19:55.618Z,23.77
2018-02-17T21:22:23.183Z,22.63
2018-02-17T21:24:50.733Z,21.07
2018-02-17T21:27:18.286Z,22.30
2018-02-17T21:29:45.851Z,23.40
2018-02-17T21:32:13.421Z,21.30
2018-02-17T21:34:40.972Z,23.67
2018-02-17T21:37:08.552Z,25.20
2018-02-17T21:39:36.216Z,23.93
2018-02-17T21:42:03.885Z,26.73
2018-02-17T21:44:31.429Z,26.53
2018-02-17T21:46:59.009Z,27.77
2018-02-17T21:49:26.556Z,26.60
2018-02-17T21:51:54.121Z,22.37
2018-02-17T21:54:21.698Z,26.70
2018-02-17T21:56:49.246Z,23.73
2018-02-17T21:59:16.815Z,26.00
2018-02-17T22:01:44.366Z,23.77
2018-02-17T22:04:12.021Z,26.57
2018-02-17T22:06:39.579Z,28.57
2018-02-17T22:09:07.127Z,27.57
2018-02-17T22:11:34.697Z,24.80
2018-02-17T22:14:02.375Z,22.30
2018-02-17T22:16:29.948Z,27.73
2018-02-17T22:18:58.308Z,26.00
2018-02-17T22:21:25.971Z,28.23
2018-02-17T22:23:53.558Z,27.37
2018-02-17T22:26:21.208Z,20.90
2018-02-17T22:28:48.777Z,23.30
2018-02-17T22:31:16.346Z,23.40
2018-02-17T22:33:43.902Z,24.97
2018-02-17T22:36:11.483Z,22.10
2018-02-17T22:38:39.831Z,23.50
2018-02-17T22:41:07.380Z,26.03
2018-02-17T22:43:34.950Z,28.17
2018-02-17T22:46:02.504Z,24.03
2018-02-17T22:48:30.058Z,23.73
2018-02-17T22:50:57.620Z,23.83
2018-02-17T22:53:25.181Z,21.53
2018-02-17T22:55:52.743Z,23.37
2018-02-17T22:58:20.322Z,26.87
2018-02-17T23:00:47.866Z,25.77
2018-02-17T23:03:15.443Z,25.70
2018-02-17T23:05:43.098Z,25.00
2018-02-17T23:08:10.769Z,25.30
2018-02-17T23:10:38.396Z,22.03
2018-02-17T23:13:05.959Z,26.10
2018-02-17T23:15:33.540Z,25.93
2018-02-17T23:18:01.088Z,26.73
2018-02-17T23:20:28.654Z,25.10
2018-02-17T23:22:56.219Z,28.63
2018-02-17T23:25:23.790Z,29.67
2018-02-17T23:27:51.366Z,28.23
2018-02-17T23:30:18.936Z,27.10
2018-02-17T23:32:46.502Z,25.50
2018-02-17T23:35:14.850Z,26.33
2018-02-17T23:37:42.398Z,25.83
2018-02-17T23:40:09.945Z,28.40
2018-02-17T23:42:37.507Z,24.17
2018-02-17T23:45:05.086Z,24.80
2018-02-17T23:47:32.658Z,27.83
2018-02-17T23:50:00.222Z,31.27
2018-02-17T23:52:27.886Z,29.90
2018-02-17T23:54:55.455Z,29.00
2018-02-17T23:57:23.032Z,27.00
2018-02-17T23:59:51.350Z,27.70
